Pagina principale
METAR-TAF:

METAR-TAF

Aeroporti :

Genova, Italia

Aeroporto di Genova-Sestri

latitudine: 44-25N, longitudine: 008-51E, altezza: 2 m

Osservazione

Il bollettino è stato emesso 19 minuti fa, alle 13:20 UTC
Vento 8 kt da nord, variando fra ovest/nord-ovest e est/nord-est
Temperature 23°C
Umidità 20%
Pressione 1010 hPa
Visibilità 10 km o più
Poco nuvoloso ad un'altezza di 3500 ft, Cumulo congesto.

METAR: LIMJ 191320Z 35008KT 290V060 9999 FEW035TCU 23/M01 Q1010

Ora: 15:39 (13:39 UTC)

Previsione

Il bollettino è stato emesso 2 ore e 39 minuti fa, alle 11:00 UTC
Previsione valida dal 19 alle 12 UTC al 20 alle 12 UTC
Vento 5 kt da direzioni variabili
Visibilità 10 km o più
nessuna nube inferiore a 1500 m e nessun cumulonembo

TAF: LIMJ 191100Z 1912/2012 VRB05KT CAVOK

Osservazioni e previsioni meteorologiche di più di 4000 aeroporti (messaggi METAR e TAF).

Le stazioni disponibili sono rappresentate dai dischi gialli e rossi sulla carta.

Puntare il mouse per vedere il nome della stazione.

Clicca sopra per visualizzare le osservazioni e previsioni meteorologiche.

Per cambiare la mappa : fare clic sui pulsanti verdi con una croce nera per ingrandire, il pulsante verde con un trattino per diminuire, o sulla freccia verde per le mappe adiacenti.


METAR-TAF: